Amsterdam, Netherlands

12:55 PM CEST on April 19, 2015 (GMT +0200)
Aalsmeerderbrug | | Change Station
CLOSE
Current Station
Personal Weather Station
Location: Aalsmeerderbrug, NOORD-HOLLAND
Elevation: -3 ft
Nearby Weather Stations

Elev -3 ft 52.27 °N, 4.75 °E | Updated 10 minutes ago

Overcast
Overcast
62.1 °F
Feels Like 62.1 °F
N
0.0
Wind Variable Wind from ESE
Gusts 3.1 mph

Today
High -- | Low -- °F
--% Chance of Precip.
Yesterday
High -- | Low -- °F
Precip. -- in
6:35 AM 8:45 PM
New Moon, 1% visible
Pressure 30.18 in
Visibility 6.2 miles
Clouds Overcast 4300 ft
Dew Point 42 °F
Humidity 48%
Rainfall 0.00 in
Snow Depth Not available.
UV 2 out of 12
Pollen Not available.
Air Quality Not available.
Flu Activity Not available.
METAR EHKD 191055Z AUTO 24009KT 9999 OVC043 09/05 Q1022 BLU

More Conditions Fewer Conditions

Pressure 30.18 in
Visibility 6.2 miles
Clouds Overcast 4300 ft
Dew Point 42 °F
Humidity 48%
Rainfall 0.00 in
Snow Depth Not available.
UV 2 out of 12
Pollen Not available.
Air Quality Not available.
Flu Activity Not available.
METAR EHKD 191055Z AUTO 24009KT 9999 OVC043 09/05 Q1022 BLU

More Conditions Fewer Conditions

10-Day Weather Forecast

Almanac

Astronomy

Apr. 19, 2015 Rise Set
Actual Time
Civil Twilight
Nautical Twilight
Astronomical Twilight
Moon
Length Of Visible Light
Length of Day
Tomorrow will be .
, % of the Moon is Illuminated

Today's Extremes

Country Highs Country Lows

Community

WunderPhotos

Upload Photos

1,814,759 photos uploaded!

WunderBlogs® & News

Nearby

Air Quality

  Air Quality AQ Index Pollutant
Not available.

Snow Depth

Station Depth Elevation

Earthquake Activity

City Distance Mag. Time & Date
Minimum magnitude displayed is 2.5.

Coastal Water Temperatures

Place Temperature

Stations

Nearby Weather Stations

Station Location Temp. Windchill Dew Point Humidity Wind Precip. Elev Updated Type